createdAt,value
2018-07-07T00:00:17.278Z,18.48
2018-07-07T00:02:46.720Z,18.44
2018-07-07T00:05:15.398Z,18.42
2018-07-07T00:07:44.390Z,18.36
2018-07-07T00:10:14.160Z,18.30
2018-07-07T00:12:43.194Z,18.18
2018-07-07T00:15:16.622Z,18.10
2018-07-07T00:17:45.835Z,18.05
2018-07-07T00:20:15.103Z,18.04
2018-07-07T00:22:44.634Z,18.06
2018-07-07T00:25:15.761Z,18.01
2018-07-07T00:27:45.795Z,17.99
2018-07-07T00:30:15.196Z,17.90
2018-07-07T00:32:44.381Z,17.90
2018-07-07T00:35:13.466Z,17.84
2018-07-07T00:37:42.589Z,17.76
2018-07-07T00:40:11.817Z,17.75
2018-07-07T00:42:40.885Z,17.74
2018-07-07T00:45:09.869Z,17.61
2018-07-07T00:47:38.535Z,17.50
2018-07-07T00:50:08.778Z,17.48
2018-07-07T00:52:37.517Z,17.48
2018-07-07T00:55:06.459Z,17.41
2018-07-07T00:57:35.087Z,17.33
2018-07-07T01:00:04.342Z,17.33
2018-07-07T01:02:33.336Z,17.31
2018-07-07T01:05:02.313Z,17.19
2018-07-07T01:07:31.010Z,17.06
2018-07-07T01:09:59.903Z,16.84
2018-07-07T01:12:28.627Z,16.70
2018-07-07T01:14:58.064Z,16.64
2018-07-07T01:17:27.578Z,16.58
2018-07-07T01:19:56.321Z,16.54
2018-07-07T01:22:25.111Z,16.56
2018-07-07T01:24:53.827Z,16.63
2018-07-07T01:27:22.585Z,16.71
2018-07-07T01:29:51.273Z,16.75
2018-07-07T01:32:19.885Z,16.83
2018-07-07T01:34:48.906Z,16.80
2018-07-07T01:37:17.537Z,16.76
2018-07-07T01:39:46.560Z,16.76
2018-07-07T01:42:16.046Z,16.78
2018-07-07T01:44:46.288Z,16.70
2018-07-07T01:47:16.275Z,16.69
2018-07-07T01:49:45.924Z,16.67
2018-07-07T01:52:14.933Z,16.53
2018-07-07T01:54:43.586Z,16.41
2018-07-07T01:57:12.298Z,16.44
2018-07-07T01:59:42.281Z,16.38
2018-07-07T02:02:12.072Z,16.33
2018-07-07T02:04:41.269Z,16.38
2018-07-07T02:07:10.267Z,16.30
2018-07-07T02:09:38.929Z,16.26
2018-07-07T02:12:07.942Z,16.09
2018-07-07T02:14:37.988Z,15.99
2018-07-07T02:17:06.744Z,15.80
2018-07-07T02:19:35.474Z,15.67
2018-07-07T02:22:04.151Z,15.66
2018-07-07T02:24:32.765Z,15.76
2018-07-07T02:27:01.780Z,15.78
2018-07-07T02:29:30.705Z,15.75
2018-07-07T02:31:59.602Z,15.77
2018-07-07T02:34:28.407Z,15.69
2018-07-07T02:36:57.451Z,15.56
2018-07-07T02:39:26.190Z,15.49
2018-07-07T02:41:55.269Z,15.46
2018-07-07T02:44:24.004Z,15.31
2018-07-07T02:46:52.846Z,15.26
2018-07-07T02:49:21.488Z,15.07
2018-07-07T02:51:50.269Z,14.97
2018-07-07T02:54:19.677Z,14.92
2018-07-07T02:56:48.738Z,14.86
2018-07-07T02:59:17.462Z,14.79
2018-07-07T03:01:46.192Z,14.91
2018-07-07T03:04:15.231Z,14.95
2018-07-07T03:06:44.055Z,15.03
2018-07-07T03:09:13.054Z,15.15
2018-07-07T03:11:42.176Z,15.08
2018-07-07T03:14:11.194Z,15.20
2018-07-07T03:16:40.254Z,15.26
2018-07-07T03:19:08.918Z,15.28
2018-07-07T03:21:37.697Z,15.35
2018-07-07T03:24:06.433Z,15.41
2018-07-07T03:26:35.159Z,15.35
2018-07-07T03:29:03.834Z,15.40
2018-07-07T03:31:32.601Z,15.46
2018-07-07T03:34:01.214Z,15.48
2018-07-07T03:36:30.219Z,15.51
2018-07-07T03:38:59.474Z,15.52
2018-07-07T03:41:28.466Z,15.40
2018-07-07T03:43:57.463Z,15.31
2018-07-07T03:46:26.533Z,15.32
2018-07-07T03:48:55.356Z,15.35
2018-07-07T03:51:24.096Z,15.23
2018-07-07T03:53:52.825Z,14.99
2018-07-07T03:56:21.732Z,14.81
2018-07-07T03:58:50.917Z,14.79
2018-07-07T04:01:19.647Z,14.70
2018-07-07T04:03:48.602Z,14.57
2018-07-07T04:06:17.798Z,14.60
2018-07-07T04:08:46.501Z,14.73
2018-07-07T04:11:15.473Z,14.85
2018-07-07T04:13:44.231Z,14.87
2018-07-07T04:16:13.076Z,14.86
2018-07-07T04:18:42.061Z,14.90
2018-07-07T04:21:10.700Z,14.93
2018-07-07T04:23:39.898Z,14.96
2018-07-07T04:26:08.616Z,15.05
2018-07-07T04:28:37.315Z,15.01
2018-07-07T04:31:06.536Z,15.07
2018-07-07T04:33:35.355Z,15.13
2018-07-07T04:36:04.054Z,15.18
2018-07-07T04:38:32.741Z,15.17
2018-07-07T04:41:02.106Z,15.24
2018-07-07T04:43:30.933Z,15.32
2018-07-07T04:45:59.646Z,15.39
2018-07-07T04:48:28.377Z,15.45
2018-07-07T04:50:57.054Z,15.56
2018-07-07T04:53:25.716Z,15.54
2018-07-07T04:55:54.445Z,15.53
2018-07-07T04:58:23.236Z,15.57
2018-07-07T05:00:51.889Z,15.64
2018-07-07T05:03:20.542Z,15.68
2018-07-07T05:05:49.185Z,15.66
2018-07-07T05:08:18.562Z,15.58
2018-07-07T05:10:47.292Z,15.62
2018-07-07T05:13:15.989Z,15.68
2018-07-07T05:15:45.091Z,15.71
2018-07-07T05:18:13.773Z,15.75
2018-07-07T05:20:44.106Z,15.83
2018-07-07T05:23:14.176Z,15.88
2018-07-07T05:25:43.773Z,15.79
2018-07-07T05:28:12.847Z,15.74
2018-07-07T05:30:41.523Z,15.73
2018-07-07T05:33:10.281Z,15.60
2018-07-07T05:35:39.308Z,15.61
2018-07-07T05:38:08.030Z,15.50
2018-07-07T05:40:36.854Z,15.49
2018-07-07T05:43:08.181Z,15.57
2018-07-07T05:45:36.970Z,15.64
2018-07-07T05:48:06.652Z,15.65
2018-07-07T05:50:36.235Z,15.73
2018-07-07T05:53:05.143Z,15.86
2018-07-07T05:55:33.818Z,15.96
2018-07-07T05:58:02.513Z,16.03
2018-07-07T06:00:31.349Z,16.10
2018-07-07T06:05:40.710Z,16.08
2018-07-07T06:08:09.420Z,16.17
2018-07-07T06:10:38.118Z,16.28
2018-07-07T06:13:07.273Z,16.41
2018-07-07T06:15:36.266Z,16.53
2018-07-07T06:18:05.124Z,16.61
2018-07-07T06:20:33.864Z,16.69
2018-07-07T06:23:02.700Z,16.81
2018-07-07T06:25:31.676Z,16.89
2018-07-07T06:28:01.633Z,16.87
2018-07-07T06:30:30.676Z,16.89
2018-07-07T06:33:00.773Z,16.93
2018-07-07T06:35:29.655Z,16.86
2018-07-07T06:37:59.374Z,16.88
2018-07-07T06:40:28.141Z,16.99
2018-07-07T06:42:56.934Z,16.99
2018-07-07T06:45:25.703Z,17.16
2018-07-07T06:47:54.434Z,17.03
2018-07-07T06:50:23.131Z,17.13
2018-07-07T06:52:58.855Z,17.35
2018-07-07T06:55:27.583Z,17.51
2018-07-07T06:57:56.306Z,17.65
2018-07-07T07:00:24.963Z,17.77
2018-07-07T07:02:53.782Z,17.78
2018-07-07T07:05:22.817Z,17.86
2018-07-07T07:07:51.892Z,17.99
2018-07-07T07:10:20.526Z,18.13
2018-07-07T07:12:49.590Z,18.43
2018-07-07T07:15:18.336Z,18.76
2018-07-07T07:17:47.188Z,19.16
2018-07-07T07:20:16.257Z,19.57
2018-07-07T07:22:45.213Z,20.06
2018-07-07T07:25:13.893Z,20.15
2018-07-07T07:27:42.925Z,20.56
2018-07-07T07:30:12.026Z,20.92
2018-07-07T07:32:40.788Z,21.23
2018-07-07T07:35:09.871Z,21.43
2018-07-07T07:37:38.594Z,21.14
2018-07-07T07:40:08.148Z,20.98
2018-07-07T07:42:38.496Z,20.82
2018-07-07T07:45:07.378Z,21.10
2018-07-07T07:47:36.182Z,21.33
2018-07-07T07:50:05.073Z,21.46
2018-07-07T07:52:33.780Z,21.17
2018-07-07T07:55:02.650Z,21.01
2018-07-07T07:57:31.644Z,20.64
2018-07-07T08:00:00.880Z,20.49
2018-07-07T08:02:29.635Z,20.62
2018-07-07T08:05:00.136Z,20.71
2018-07-07T08:07:29.630Z,21.19
2018-07-07T08:09:59.291Z,21.50
2018-07-07T08:12:28.334Z,21.88
2018-07-07T08:14:57.904Z,22.30
2018-07-07T08:17:26.763Z,22.78
2018-07-07T08:19:55.861Z,23.39
2018-07-07T08:22:24.720Z,23.98
2018-07-07T08:24:53.565Z,23.72
2018-07-07T08:27:22.330Z,23.13
2018-07-07T08:29:51.050Z,22.45
2018-07-07T08:32:20.154Z,22.12
2018-07-07T08:34:48.901Z,22.02
2018-07-07T08:37:17.685Z,21.88
2018-07-07T08:39:46.841Z,21.37
2018-07-07T08:42:15.737Z,20.92
2018-07-07T08:44:44.808Z,20.66
2018-07-07T08:47:13.722Z,20.64
2018-07-07T08:49:42.402Z,20.71
2018-07-07T08:52:11.150Z,21.01
2018-07-07T08:54:40.080Z,21.82
2018-07-07T08:57:08.793Z,22.30
2018-07-07T08:59:37.547Z,22.81
2018-07-07T09:02:06.985Z,23.46
2018-07-07T09:04:35.851Z,22.70
2018-07-07T09:07:04.692Z,22.67
2018-07-07T09:09:33.400Z,22.59
2018-07-07T09:12:02.368Z,22.86
2018-07-07T09:14:31.075Z,23.43
2018-07-07T09:16:59.781Z,23.83
2018-07-07T09:19:28.954Z,23.84
2018-07-07T09:21:57.695Z,23.01
2018-07-07T09:24:26.408Z,22.53
2018-07-07T09:26:55.128Z,22.59
2018-07-07T09:29:24.059Z,22.17
2018-07-07T09:31:52.885Z,22.32
2018-07-07T09:34:21.603Z,21.88
2018-07-07T09:36:50.539Z,21.81
2018-07-07T09:39:19.310Z,21.89
2018-07-07T09:41:48.079Z,21.79
2018-07-07T09:44:17.620Z,21.53
2018-07-07T09:46:46.944Z,21.54
2018-07-07T09:49:15.669Z,21.72
2018-07-07T09:51:44.780Z,21.69
2018-07-07T09:54:13.560Z,21.56
2018-07-07T09:56:42.379Z,21.78
2018-07-07T09:59:11.164Z,21.72
2018-07-07T10:01:39.905Z,21.63
2018-07-07T10:04:08.766Z,21.52
2018-07-07T10:06:37.487Z,21.38
2018-07-07T10:09:06.286Z,21.59
2018-07-07T10:11:35.320Z,21.86
2018-07-07T10:14:04.309Z,21.73
2018-07-07T10:16:33.030Z,21.83
2018-07-07T10:19:01.799Z,22.08
2018-07-07T10:21:30.789Z,22.14
2018-07-07T10:23:59.493Z,22.14
2018-07-07T10:26:28.577Z,22.21
2018-07-07T10:28:57.756Z,22.39
2018-07-07T10:31:26.510Z,22.71
2018-07-07T10:33:55.552Z,22.89
2018-07-07T10:36:24.426Z,23.05
2018-07-07T10:38:53.225Z,23.23
2018-07-07T10:41:22.299Z,23.38
2018-07-07T10:43:51.021Z,23.49
2018-07-07T10:46:20.198Z,23.66
2018-07-07T10:48:48.931Z,23.92
2018-07-07T10:51:17.660Z,24.40
2018-07-07T10:53:46.622Z,25.16
2018-07-07T10:56:15.734Z,26.03
2018-07-07T10:58:44.499Z,26.82
2018-07-07T11:01:13.595Z,27.20
2018-07-07T11:03:42.300Z,26.93
2018-07-07T11:06:11.014Z,26.32
2018-07-07T11:08:40.058Z,26.02
2018-07-07T11:11:08.887Z,25.61
2018-07-07T11:13:37.883Z,25.52
2018-07-07T11:16:07.755Z,25.44
2018-07-07T11:18:36.539Z,25.25
2018-07-07T11:21:05.412Z,25.21
2018-07-07T11:23:34.271Z,25.16
2018-07-07T11:26:03.163Z,24.99
2018-07-07T11:28:31.867Z,25.09
2018-07-07T11:31:00.592Z,25.15
2018-07-07T11:33:32.114Z,25.42
2018-07-07T11:36:01.332Z,25.61
2018-07-07T11:38:30.451Z,26.06
2018-07-07T11:40:59.236Z,26.58
2018-07-07T11:43:28.701Z,27.34
2018-07-07T11:45:57.799Z,28.13
2018-07-07T11:48:26.498Z,28.60
2018-07-07T11:50:55.300Z,29.16
2018-07-07T11:53:24.216Z,29.06
2018-07-07T11:55:52.910Z,28.80
2018-07-07T11:58:21.615Z,28.52
2018-07-07T12:00:50.759Z,28.74
2018-07-07T12:03:19.582Z,29.34
2018-07-07T12:05:48.217Z,30.51
2018-07-07T12:08:16.908Z,32.18
2018-07-07T12:10:46.031Z,34.65
2018-07-07T12:13:15.202Z,36.37
2018-07-07T12:15:43.937Z,37.81
2018-07-07T12:18:12.857Z,39.59
2018-07-07T12:20:41.750Z,40.85
2018-07-07T12:23:10.650Z,41.47
2018-07-07T12:25:39.724Z,42.04
2018-07-07T12:28:08.581Z,41.57
2018-07-07T12:30:37.564Z,40.40
2018-07-07T12:33:06.670Z,39.87
2018-07-07T12:35:35.572Z,41.17
2018-07-07T12:38:04.330Z,41.68
2018-07-07T12:40:33.495Z,42.31
2018-07-07T12:43:02.026Z,43.31
2018-07-07T12:45:30.910Z,42.76
2018-07-07T12:48:07.342Z,42.32
2018-07-07T12:50:36.260Z,42.29
2018-07-07T12:53:05.355Z,40.56
2018-07-07T12:55:34.499Z,40.44
2018-07-07T12:58:03.384Z,39.43
2018-07-07T13:00:32.126Z,40.17
2018-07-07T13:03:00.899Z,41.36
2018-07-07T13:05:29.939Z,42.21
2018-07-07T13:07:58.749Z,42.71
2018-07-07T13:10:27.659Z,43.36
2018-07-07T13:12:56.328Z,43.03
2018-07-07T13:15:25.332Z,42.89
2018-07-07T13:17:54.302Z,42.18
2018-07-07T13:20:23.030Z,42.98
2018-07-07T13:22:51.775Z,44.36
2018-07-07T13:25:20.502Z,45.68
2018-07-07T13:27:49.261Z,46.81
2018-07-07T13:30:17.960Z,47.32
2018-07-07T13:32:46.860Z,47.21
2018-07-07T13:35:15.642Z,47.46
2018-07-07T13:37:44.652Z,47.71
2018-07-07T13:40:13.439Z,47.86
2018-07-07T13:42:42.343Z,45.67
2018-07-07T13:45:11.463Z,44.88
2018-07-07T13:47:40.227Z,45.98
2018-07-07T13:50:09.158Z,46.58
2018-07-07T13:52:37.948Z,47.51
2018-07-07T13:55:06.714Z,47.42
2018-07-07T13:57:35.450Z,47.45
2018-07-07T14:00:04.389Z,47.42
2018-07-07T14:02:39.784Z,46.72
2018-07-07T14:05:08.898Z,44.28
2018-07-07T14:07:38.013Z,42.31
2018-07-07T14:10:06.918Z,41.90
2018-07-07T14:12:35.667Z,42.15
2018-07-07T14:15:05.265Z,42.02
2018-07-07T14:17:34.184Z,40.84
2018-07-07T14:20:03.208Z,39.33
2018-07-07T14:22:32.019Z,38.40
2018-07-07T14:25:01.011Z,38.08
2018-07-07T14:27:29.857Z,37.76
2018-07-07T14:29:58.939Z,37.30
2018-07-07T14:32:27.648Z,37.03
2018-07-07T14:34:56.389Z,36.79
2018-07-07T14:37:25.162Z,35.99
2018-07-07T14:40:00.938Z,34.84
2018-07-07T14:42:47.719Z,33.69
2018-07-07T14:45:21.616Z,32.53
2018-07-07T14:47:51.518Z,31.89
2018-07-07T14:50:20.424Z,31.46
2018-07-07T14:52:49.499Z,31.29
2018-07-07T14:55:19.547Z,30.80
2018-07-07T14:57:49.043Z,30.19
2018-07-07T15:00:20.362Z,30.12
2018-07-07T15:02:51.316Z,30.05
2018-07-07T15:05:20.403Z,29.96
2018-07-07T15:07:49.824Z,29.83
2018-07-07T15:10:19.679Z,29.47
2018-07-07T15:12:50.589Z,29.31
2018-07-07T15:15:19.359Z,29.02
2018-07-07T15:17:48.537Z,28.79
2018-07-07T15:20:17.330Z,28.68
2018-07-07T15:22:46.373Z,28.50
2018-07-07T15:25:15.051Z,27.99
2018-07-07T15:27:43.834Z,27.87
2018-07-07T15:30:12.508Z,27.53
2018-07-07T15:32:41.558Z,27.14
2018-07-07T15:35:10.628Z,27.27
2018-07-07T15:37:39.840Z,27.46
2018-07-07T15:40:08.705Z,27.40
2018-07-07T15:42:37.456Z,27.47
2018-07-07T15:45:06.282Z,27.52
2018-07-07T15:47:34.949Z,27.51
2018-07-07T15:50:04.501Z,27.51
2018-07-07T15:52:33.232Z,27.44
2018-07-07T15:55:02.089Z,27.42
2018-07-07T15:57:31.669Z,27.31
2018-07-07T16:00:01.105Z,27.25
2018-07-07T16:02:30.034Z,27.19
2018-07-07T16:04:59.334Z,27.13
2018-07-07T16:07:28.159Z,26.99
2018-07-07T16:09:57.045Z,26.86
2018-07-07T16:12:25.860Z,26.71
2018-07-07T16:14:54.698Z,26.66
2018-07-07T16:17:23.439Z,26.57
2018-07-07T16:19:52.316Z,26.50
2018-07-07T16:22:21.081Z,26.28
2018-07-07T16:24:49.899Z,26.25
2018-07-07T16:27:18.654Z,26.21
2018-07-07T16:29:47.475Z,26.18
2018-07-07T16:32:16.275Z,26.18
2018-07-07T16:34:45.543Z,26.18
2018-07-07T16:37:14.788Z,26.09
2018-07-07T16:39:43.579Z,26.12
2018-07-07T16:42:12.473Z,26.01
2018-07-07T16:44:41.293Z,26.01
2018-07-07T16:47:10.082Z,26.01
2018-07-07T16:49:39.080Z,25.93
2018-07-07T16:52:08.170Z,25.84
2018-07-07T16:54:37.358Z,25.67
2018-07-07T16:57:06.050Z,25.58
2018-07-07T16:59:35.043Z,25.44
2018-07-07T17:02:03.850Z,25.49
2018-07-07T17:04:32.896Z,25.41
2018-07-07T17:07:01.717Z,25.31
2018-07-07T17:09:30.508Z,25.34
2018-07-07T17:11:59.351Z,25.28
2018-07-07T17:14:28.104Z,25.23
2018-07-07T17:16:57.384Z,25.15
2018-07-07T17:19:26.460Z,25.11
2018-07-07T17:21:55.570Z,25.10
2018-07-07T17:24:24.953Z,25.03
2018-07-07T17:26:53.971Z,25.04
2018-07-07T17:29:22.747Z,25.00
2018-07-07T17:31:51.863Z,24.97
2018-07-07T17:34:20.634Z,24.91
2018-07-07T17:36:49.515Z,24.87
2018-07-07T17:39:18.353Z,24.82
2018-07-07T17:41:47.582Z,24.76
2018-07-07T17:44:16.384Z,24.68
2018-07-07T17:46:45.510Z,24.63
2018-07-07T17:49:14.985Z,24.60
2018-07-07T17:51:43.827Z,24.55
2018-07-07T17:54:12.787Z,24.54
2018-07-07T17:56:41.576Z,24.51
2018-07-07T17:59:10.404Z,24.51
2018-07-07T18:01:45.743Z,24.41
2018-07-07T18:04:14.847Z,24.37
2018-07-07T18:06:43.614Z,24.33
2018-07-07T18:09:12.300Z,24.31
2018-07-07T18:11:41.223Z,24.29
2018-07-07T18:14:09.772Z,24.25
2018-07-07T18:16:38.831Z,24.22
2018-07-07T18:19:07.613Z,24.21
2018-07-07T18:21:36.381Z,24.17
2018-07-07T18:24:05.207Z,24.14
2018-07-07T18:26:34.136Z,24.14
2018-07-07T18:29:02.977Z,24.09
2018-07-07T18:31:33.085Z,24.06
2018-07-07T18:34:01.770Z,24.02
2018-07-07T18:36:30.514Z,23.98
2018-07-07T18:38:59.318Z,23.99
2018-07-07T18:41:28.062Z,23.94
2018-07-07T18:43:56.845Z,23.94
2018-07-07T18:46:26.146Z,23.92
2018-07-07T18:48:54.874Z,23.85
2018-07-07T18:51:23.537Z,23.80
2018-07-07T18:53:52.515Z,23.75
2018-07-07T18:56:21.201Z,23.71
2018-07-07T18:58:50.979Z,23.67
2018-07-07T19:01:20.085Z,23.66
2018-07-07T19:03:48.770Z,23.59
2018-07-07T19:06:17.502Z,23.56
2018-07-07T19:08:46.283Z,23.53
2018-07-07T19:11:15.114Z,23.48
2018-07-07T19:13:44.146Z,23.44
2018-07-07T19:16:13.155Z,23.42
2018-07-07T19:18:42.511Z,23.41
2018-07-07T19:21:16.515Z,23.39
2018-07-07T19:24:53.118Z,23.40
2018-07-07T19:27:21.981Z,23.32
2018-07-07T19:29:50.692Z,23.33
2018-07-07T19:32:24.590Z,23.25
2018-07-07T19:34:58.357Z,23.17
2018-07-07T19:37:27.087Z,23.09
2018-07-07T19:39:56.193Z,23.08
2018-07-07T19:42:24.985Z,23.03
2018-07-07T19:44:54.568Z,22.98
2018-07-07T19:47:23.390Z,22.94
2018-07-07T19:49:52.449Z,22.93
2018-07-07T19:52:21.311Z,22.89
2018-07-07T19:54:50.068Z,22.88
2018-07-07T19:57:19.097Z,22.86
2018-07-07T19:59:47.809Z,22.81
2018-07-07T20:02:16.492Z,22.79
2018-07-07T20:04:45.237Z,22.76
2018-07-07T20:07:14.020Z,22.70
2018-07-07T20:09:43.359Z,22.64
2018-07-07T20:12:12.203Z,22.64
2018-07-07T20:14:41.021Z,22.59
2018-07-07T20:17:11.153Z,22.57
2018-07-07T20:20:58.635Z,22.53
2018-07-07T20:23:28.774Z,22.48
2018-07-07T20:26:03.594Z,22.45
2018-07-07T20:28:37.509Z,22.43
2018-07-07T20:31:06.291Z,22.36
2018-07-07T20:33:35.323Z,22.32
2018-07-07T20:36:04.141Z,22.31
2018-07-07T20:38:32.818Z,22.26
2018-07-07T20:41:01.531Z,22.22
2018-07-07T20:43:30.605Z,22.19
2018-07-07T20:45:59.235Z,22.13
2018-07-07T20:48:28.496Z,22.07
2018-07-07T20:50:57.178Z,22.04
2018-07-07T20:53:25.960Z,22.05
2018-07-07T20:55:55.304Z,22.01
2018-07-07T20:58:24.036Z,21.99
2018-07-07T21:00:52.796Z,21.95
2018-07-07T21:03:21.626Z,21.92
2018-07-07T21:05:50.287Z,21.93
2018-07-07T21:08:19.365Z,21.88
2018-07-07T21:10:48.351Z,21.88
2018-07-07T21:13:17.471Z,21.83
2018-07-07T21:15:46.702Z,21.78
2018-07-07T21:18:15.492Z,21.76
2018-07-07T21:20:44.269Z,21.76
2018-07-07T21:23:13.013Z,21.74
2018-07-07T21:25:42.513Z,21.69
2018-07-07T21:28:11.160Z,21.57
2018-07-07T21:30:39.852Z,21.51
2018-07-07T21:33:08.559Z,21.48
2018-07-07T21:35:37.323Z,21.50
2018-07-07T21:38:06.403Z,21.46
2018-07-07T21:40:35.362Z,21.42
2018-07-07T21:43:04.459Z,21.40
2018-07-07T21:45:33.175Z,21.42
2018-07-07T21:48:01.818Z,21.40
2018-07-07T21:50:30.845Z,21.36
2018-07-07T21:53:00.169Z,21.32
2018-07-07T21:55:28.898Z,21.30
2018-07-07T21:58:02.886Z,21.20
2018-07-07T22:00:37.100Z,21.15
2018-07-07T22:03:11.177Z,21.09
2018-07-07T22:06:11.617Z,21.09
2018-07-07T22:08:41.070Z,21.08
2018-07-07T22:11:10.765Z,21.08
2018-07-07T22:13:39.505Z,21.06
2018-07-07T22:16:08.463Z,21.05
2018-07-07T22:18:37.323Z,21.01
2018-07-07T22:21:16.992Z,20.97
2018-07-07T22:23:45.672Z,20.94
2018-07-07T22:26:15.094Z,20.92
2018-07-07T22:28:45.435Z,20.91
2018-07-07T22:31:14.114Z,20.83
2018-07-07T22:33:42.773Z,20.81
2018-07-07T22:36:17.082Z,20.78
2018-07-07T22:38:51.426Z,20.75
2018-07-07T22:41:21.067Z,20.75
2018-07-07T22:43:50.000Z,20.70
2018-07-07T22:46:18.751Z,20.67
2018-07-07T22:48:47.506Z,20.63
2018-07-07T22:51:16.397Z,20.59
2018-07-07T22:53:45.542Z,20.59
2018-07-07T22:56:14.470Z,20.56
2018-07-07T22:58:43.242Z,20.51
2018-07-07T23:01:11.934Z,20.44
2018-07-07T23:03:40.902Z,20.43
2018-07-07T23:06:09.587Z,20.40
2018-07-07T23:08:38.377Z,20.35
2018-07-07T23:11:07.160Z,20.30
2018-07-07T23:13:36.258Z,20.25
2018-07-07T23:16:05.634Z,20.23
2018-07-07T23:18:34.587Z,20.20
2018-07-07T23:21:03.382Z,20.20
2018-07-07T23:23:32.057Z,20.18
2018-07-07T23:26:00.810Z,20.12
2018-07-07T23:28:30.161Z,20.11
2018-07-07T23:30:58.799Z,20.12
2018-07-07T23:33:27.784Z,20.11
2018-07-07T23:35:56.573Z,20.07
2018-07-07T23:38:25.257Z,20.04
2018-07-07T23:40:54.936Z,20.04
2018-07-07T23:43:24.013Z,20.04
2018-07-07T23:45:52.757Z,20.04
2018-07-07T23:48:21.719Z,20.01
2018-07-07T23:50:50.695Z,20.00
2018-07-07T23:53:19.376Z,19.95
2018-07-07T23:55:48.039Z,19.97
2018-07-07T23:58:16.769Z,19.95
